Airfield :
LOGIN :

Register | Disclaimer

   EN    FR    IT 

 










Legend :    VFR   Marginal VFR   IFR   Intensive IFR   Very Intensive IFR
Visi :
Ceiling :
>= 8 km
>= 3000ft
5 to 8 km
1000 to 3000 ft
1500m to 5 km
500 to 1000 ft
800 to 1500m
200 to 500 ft
< 800m
< 200 ft
Symbols :   Thunderstorms  Fog  Heavy snow  Heavy precipitations  Wind > 20 kt
SIGMETs :     Misc.  Thunderstorms  Icing  Turbulence  Mountain Waves  Volcanic Ashes







- Airport Elevation : 12 ft
- IATA code : BCN


LEBL - Barcelone

CURRENT METAR :
  • 220400Z 35005KT 9999 FEW020 19/17 Q1019 NOSIG

EXPIRED METARs :
  • 220330Z 33006KT 9999 FEW020 18/17 Q1019 NOSIG
  • 220300Z 33005KT 9999 FEW020 19/17 Q1019 NOSIG
  • 220230Z VRB02KT 9999 FEW020 19/17 Q1019 NOSIG
  • 220200Z 34005KT 9999 FEW022 19/17 Q1019 NOSIG
  • 220130Z 34004KT 9999 SCT022 19/17 Q1019 NOSIG

TAF TAF LEBL
Valid from the 22 at 00:00 until the 23 at 00:00 UTC


212300Z 2200/2224 34008KT 9999 SCT020 TX25/2213Z TN18/2206Z
BECMG 2208/2210 10010KT
PROB30
TEMPO 2205/2215 4000 SHRA BKN020 SCT030TCU
TEMPO 2214/2216 32006KT
PROB30
TEMPO 2215/2219 4000 TSRA BKN020 SCT030CB
PROB30
TEMPO 2220/2224 SHRA BKN020 SCT030TCU
BECMG 2220/2222 31006KT
No reported NOTAMs for that airfield.



MET'MAP, your aeronautical weather chart ! - Copyright ORBIFLY December 2007 - Disclaimer

ORBIFLY MET'MAP TEAM :

Programming & Development : Alexandra Zaïnal
Concept & Development : Baudouin d'Aumeries
Co-Development & Prog : Marc-Olivier Méhu
Technical & hardware support : Manuel Goepfert

Contact : metmap@orbifly.com




SOURCES & CREDITS :

   NOAA